Stations météo

réclame
Mon MeteoGroup
Mont-Rigi, Belgique (6494): Température de l'air & dewpoint: 12.11.2018 05:00:00 - 18.11.2018 05:00:00 (CET)Mont-Rigi, Belgique (6494): Vitesse du vent & gusts: 12.11.2018 05:00:00 - 18.11.2018 05:00:00 (CET)Mont-Rigi, Belgique (6494): Direction du vent: 12.11.2018 05:00:00 - 18.11.2018 05:00:00 (CET)Mont-Rigi, Belgique (6494): reduced air pressure: 12.11.2018 05:00:00 - 18.11.2018 05:00:00 (CET)Mont-Rigi, Belgique (6494): Ensoleillement: 12.11.2018 05:00:00 - 18.11.2018 05:00:00 (CET)Mont-Rigi, Belgique (6494): Quantités de précipitations: 12.11.2018 05:00:00 - 18.11.2018 05:00:00 (CET)
Date & Time tt [°C] td [°C] ff [km/h] ff [knt] fx [km/h] fx [knt] dd ppp [hPa] sd [min] rr [mm]
18.11.2018 05:00:00 -0,8 -4,9 14 8 34 18 E 1028,5 0 0,0
18.11.2018 04:00:00 -0,5 -4,9 15 8 31 17 ESE 1028,4 0 0,0
18.11.2018 03:00:00 -0,2 -4,9 14 8 31 17 ESE 1028,5 0 0,0
18.11.2018 02:00:00 -0,1 -4,8 18 10 33 18 ESE 1028,6 0 0,0
18.11.2018 01:00:00 0,2 -4,8 18 10 33 18 ESE 1028,8 0 0,0
18.11.2018 00:00:00 0,8 -4,7 19 11 41 22 ESE 1028,8 0 0,0
17.11.2018 23:00:00 1,5 -4,9 18 10 32 17 E 1028,6 0 0,0
17.11.2018 22:00:00 2,1 -5,3 14 8 35 19 E 1028,7 0 0,0
17.11.2018 21:00:00 2,4 -6,0 13 7 31 17 E 1028,4 0 0,0
17.11.2018 20:00:00 3,1 -6,1 15 8 33 18 E 1028,4 0 0,0
17.11.2018 19:00:00 3,7 -5,8 14 8 32 17 E 1028,4 0 0,0
17.11.2018 18:00:00 3,6 -4,2 15 8 35 19 E 1028,6 0 0,0
17.11.2018 17:00:00 3,9 -3,0 18 10 32 18 E 1028,1 - -
17.11.2018 16:00:00 5,8 -3,9 17 9 34 19 E 1027,3 0 0,0
17.11.2018 15:00:00 7,5 -4,5 16 8 49 27 E 1026,8 0 0,0
17.11.2018 14:00:00 7,4 -5,1 22 12 46 25 ESE 1026,9 0 0,0
17.11.2018 13:00:00 7,0 -4,3 25 14 51 28 ESE 1027,1 0 0,0
17.11.2018 12:00:00 6,2 -3,8 25 14 49 26 ESE 1027,5 0 0,0
17.11.2018 11:00:00 4,8 -2,7 27 14 46 25 ESE 1028,1 0 0,0
17.11.2018 10:00:00 3,8 -3,0 25 14 44 24 ESE 1028,2 0 0,0
17.11.2018 09:00:00 2,0 -2,5 18 10 39 21 ESE 1028,5 0 0,0
17.11.2018 08:00:00 0,9 -2,5 16 9 33 18 ESE 1028,6 0 0,0
17.11.2018 07:00:00 0,4 -2,2 14 8 29 16 ESE 1028,5 0 0,0
17.11.2018 06:00:00 0,9 -2,1 17 9 30 16 ESE 1028,0 0 0,0
17.11.2018 05:00:00 2,0 -2,3 22 12 32 18 ESE 1027,9 - -
17.11.2018 04:00:00 2,0 -2,4 14 8 - - ESE 1028,3 - -
17.11.2018 03:00:00 2,2 -2,4 17 9 36 19 ESE 1028,3 0 0,0
17.11.2018 02:00:00 2,4 -2,6 14 8 25 14 ESE 1028,4 - -
17.11.2018 01:00:00 2,4 -2,2 18 10 39 21 ESE 1028,4 0 0,0
17.11.2018 00:00:00 2,9 -2,0 24 13 44 24 ESE 1028,3 0 0,0
16.11.2018 23:00:00 - - - - - - - - - -
16.11.2018 22:00:00 3,7 -3,0 23 12 44 24 ESE 1027,7 0 0,0
16.11.2018 21:00:00 5,4 -5,6 24 13 38 21 ESE 1027,2 0 0,0
16.11.2018 20:00:00 5,0 -6,2 16 9 27 15 ESE 1027,5 0 0,0
16.11.2018 19:00:00 6,0 -6,0 14 8 28 15 ESE 1027,3 0 0,0
16.11.2018 18:00:00 5,8 -3,6 12 7 23 12 ESE 1027,3 0 0,0
16.11.2018 17:00:00 7,7 -4,9 14 8 27 15 ESE 1026,8 0 0,0
16.11.2018 16:00:00 9,1 -4,0 18 10 - - SE 1026,4 - -
16.11.2018 15:00:00 10,2 -3,1 17 9 28 15 SE 1026,1 0 0,0
16.11.2018 14:00:00 10,3 -1,5 20 11 34 18 SE 1026,3 0 0,0
16.11.2018 13:00:00 9,8 -1,7 18 10 32 18 SE 1026,4 0 0,0
16.11.2018 12:00:00 7,5 -2,5 22 12 34 18 SE 1027,0 0 0,0
16.11.2018 11:00:00 8,6 -3,4 11 6 19 10 SSE 1026,9 0 0,0
16.11.2018 10:00:00 6,9 1,5 10 6 17 9 SE 1026,7 0 0,0
16.11.2018 09:00:00 1,5 0,1 5 3 13 7 SE 1028,2 0 0,0
16.11.2018 08:00:00 -0,2 -1,4 6 3 17 9 SE 1028,1 0 0,0
16.11.2018 07:00:00 0,2 -1,3 7 4 16 8 SE 1027,6 0 0,0
16.11.2018 06:00:00 0,6 -2,0 7 4 11 6 SE 1027,3 - -
16.11.2018 05:00:00 1,8 -0,6 8 4 11 6 ESE 1026,6 0 0,0
16.11.2018 04:00:00 0,2 -1,4 4 2 10 5 S 1027,5 0 0,0
16.11.2018 03:00:00 0,2 -1,4 5 3 11 6 ESE 1027,3 0 0,0
16.11.2018 02:00:00 0,6 -0,6 4 2 8 4 SE 1027,3 0 0,0
16.11.2018 01:00:00 1,0 0,0 7 4 14 7 S 1027,1 0 0,0
16.11.2018 00:00:00 1,0 -0,1 6 3 15 8 SW 1027,2 0 0,0
15.11.2018 23:00:00 0,0 -1,2 5 3 12 7 WSW 1027,2 0 0,0
15.11.2018 22:00:00 -0,1 -1,2 5 3 11 6 SW 1027,1 0 0,0
15.11.2018 21:00:00 -0,3 -1,9 6 3 17 9 SSE 1027,1 0 0,0
15.11.2018 20:00:00 1,0 -0,9 11 6 16 9 SE 1026,7 0 0,0
15.11.2018 19:00:00 2,3 0,2 7 4 16 9 SSE 1026,1 0 0,0
15.11.2018 18:00:00 2,2 -0,6 6 4 10 5 SE 1026,1 0 0,0
15.11.2018 17:00:00 6,3 -1,4 5 3 8 4 SSE 1025,1 0 0,0
15.11.2018 16:00:00 10,5 -1,5 7 4 18 10 SSE 1024,0 0 0,0
15.11.2018 15:00:00 11,7 -3,4 9 5 19 10 SSE 1023,9 0 0,0
15.11.2018 14:00:00 12,2 -1,0 11 6 18 10 SSE 1023,7 0 0,0
15.11.2018 13:00:00 11,6 -0,2 11 6 18 10 SSE 1024,1 0 0,0
15.11.2018 12:00:00 11,3 0,7 10 6 18 10 SSE 1024,6 0 0,0
15.11.2018 11:00:00 9,8 1,3 9 5 13 7 SSE 1025,3 0 0,0
15.11.2018 10:00:00 8,2 3,7 4 2 9 5 SSE 1025,6 0 0,0
15.11.2018 09:00:00 4,0 1,7 4 2 9 5 SE 1026,6 0 0,0
15.11.2018 08:00:00 2,7 0,6 4 2 8 4 SE 1026,9 0 0,0
15.11.2018 07:00:00 3,1 1,4 4 2 8 5 SE 1026,6 0 0,0
15.11.2018 06:00:00 2,7 1,3 4 2 6 4 SE 1026,8 0 0,0
15.11.2018 05:00:00 3,2 2,3 5 3 9 5 ESE 1026,7 0 0,0
15.11.2018 04:00:00 3,0 2,4 6 3 9 5 SE 1027,0 0 0,0
15.11.2018 03:00:00 3,3 2,6 4 2 11 6 S 1027,1 0 0,0
15.11.2018 02:00:00 3,4 2,6 5 3 14 8 SSE 1027,1 0 0,0
15.11.2018 01:00:00 4,2 3,5 11 6 18 10 SSE 1026,9 0 0,0
15.11.2018 00:00:00 4,1 3,4 9 5 14 8 SSE 1027,0 0 0,0
14.11.2018 23:00:00 4,5 3,9 10 5 20 11 S 1026,9 0 0,0
14.11.2018 22:00:00 4,6 3,9 11 6 22 12 S 1026,9 0 0,0
14.11.2018 21:00:00 4,5 3,5 13 7 24 13 S 1027,0 0 0,0
14.11.2018 20:00:00 4,4 3,0 14 7 22 12 S 1027,2 0 0,0
14.11.2018 19:00:00 4,8 3,0 14 8 22 12 S 1027,1 0 0,0
14.11.2018 18:00:00 4,8 2,7 10 5 17 9 SSE 1027,3 0 0,0
14.11.2018 17:00:00 6,4 2,8 11 6 18 10 S 1027,2 0 0,0
14.11.2018 16:00:00 8,5 3,8 12 6 25 14 S 1027,0 0 0,0
14.11.2018 15:00:00 8,8 5,2 14 7 23 13 S 1027,0 0 0,0
14.11.2018 14:00:00 - - - - - - - - - -
14.11.2018 13:00:00 6,5 6,2 14 8 27 15 S 1028,1 0 0,0
14.11.2018 12:00:00 5,6 5,2 17 9 26 14 SSE 1028,8 0 0,0
14.11.2018 11:00:00 5,1 4,8 16 8 26 14 SSE 1029,4 0 0,0
14.11.2018 10:00:00 4,4 4,0 13 7 23 13 SSE 1029,6 0 0,0
14.11.2018 09:00:00 3,2 2,7 11 6 18 10 SSE 1029,7 0 0,0
14.11.2018 08:00:00 2,8 2,4 11 6 18 10 SSE 1029,7 0 0,0
14.11.2018 07:00:00 - - - - - - - - - -
14.11.2018 06:00:00 2,4 1,9 5 3 11 6 S 1030,2 0 0,0
14.11.2018 05:00:00 3,8 3,4 4 2 11 6 SW 1030,2 - -
14.11.2018 04:00:00 4,3 3,8 7 4 - - SSW 1030,3 - -
14.11.2018 03:00:00 5,0 4,5 7 4 12 7 S 1030,6 0 0,0
14.11.2018 02:00:00 4,8 4,4 6 3 10 5 S 1030,9 0 0,0
14.11.2018 01:00:00 4,2 3,8 7 4 14 8 SSW 1031,1 0 0,0
14.11.2018 00:00:00 3,8 3,2 8 5 16 9 SW 1031,2 0 0,0
13.11.2018 23:00:00 4,7 4,2 11 6 17 9 SW 1030,6 0 0,0
13.11.2018 22:00:00 4,7 4,2 10 5 20 11 SW 1030,5 0 0,0
13.11.2018 21:00:00 5,0 4,3 13 7 19 11 SW 1030,2 0 0,0
13.11.2018 20:00:00 5,4 4,6 11 6 23 13 SW 1029,8 0 0,0
13.11.2018 19:00:00 5,6 4,6 14 8 22 12 SW 1029,3 0 0,0
13.11.2018 18:00:00 6,5 5,0 13 7 26 14 SW 1028,8 0 0,0
13.11.2018 17:00:00 6,7 4,8 15 8 29 16 SW 1028,0 0 0,0
13.11.2018 16:00:00 7,3 4,7 21 11 39 21 WSW 1027,0 0 0,0
13.11.2018 15:00:00 7,8 5,0 24 13 37 20 SW 1025,9 0 0,0
13.11.2018 14:00:00 7,2 5,4 16 9 36 20 SW 1025,8 0 0,0
13.11.2018 13:00:00 7,4 5,9 22 12 42 23 SW 1025,2 0 0,0
13.11.2018 12:00:00 7,0 5,7 22 12 42 23 WSW 1025,2 0 0,0
13.11.2018 11:00:00 6,7 6,0 25 14 42 23 SW 1024,6 0 0,0
13.11.2018 10:00:00 6,4 5,7 23 12 44 24 SW 1024,1 0 0,0
13.11.2018 09:00:00 6,5 5,7 24 13 43 23 SW 1023,4 0 0,0
13.11.2018 08:00:00 6,5 6,0 22 12 38 20 SSW 1022,6 0 0,0
13.11.2018 07:00:00 6,3 5,8 14 8 29 16 SSW 1022,0 0 0,0
13.11.2018 06:00:00 6,3 5,9 19 10 29 15 SSW 1021,5 0 0,0
13.11.2018 05:00:00 6,2 5,7 16 9 25 13 SSW 1020,8 0 0,0
13.11.2018 04:00:00 6,1 5,6 14 8 29 16 SSW 1021,0 0 0,0
13.11.2018 03:00:00 6,2 5,7 13 7 23 12 SSW 1020,9 0 0,0
13.11.2018 02:00:00 6,1 5,7 13 7 24 13 S 1020,7 0 0,0
13.11.2018 01:00:00 6,3 5,8 11 6 18 10 SSW 1020,9 0 0,0
13.11.2018 00:00:00 6,4 6,0 10 6 23 12 S 1020,3 0 0,0
12.11.2018 23:00:00 6,4 5,9 7 4 17 9 S 1020,1 0 0,0
12.11.2018 22:00:00 6,3 5,8 7 4 19 10 SSW 1019,9 0 0,0
12.11.2018 21:00:00 6,8 6,3 12 6 19 10 SW 1019,5 0 0,0
12.11.2018 20:00:00 6,9 6,4 13 7 26 14 SW 1019,0 0 0,0
12.11.2018 19:00:00 7,3 6,6 14 8 29 16 SW 1018,5 0 0,0
12.11.2018 18:00:00 8,1 7,5 18 10 40 21 WSW 1017,2 0 0,0
12.11.2018 17:00:00 9,3 8,7 18 10 32 18 SW 1015,8 - -
12.11.2018 16:00:00 10,3 9,9 19 11 - - SSW 1014,6 0 0,0
12.11.2018 15:00:00 10,6 10,1 16 9 46 25 SSW 1014,1 0 0,0
12.11.2018 14:00:00 11,3 10,6 21 11 35 19 SW 1013,7 0 0,0
12.11.2018 13:00:00 12,1 10,6 18 10 39 21 SSW 1012,7 0 0,0
12.11.2018 12:00:00 12,0 10,4 23 12 42 23 SSW 1012,5 0 0,0
12.11.2018 11:00:00 11,6 10,3 28 15 49 27 SSW 1012,1 0 0,0
12.11.2018 10:00:00 10,5 10,1 23 13 37 20 S 1011,8 0 0,0
12.11.2018 09:00:00 9,5 9,2 19 10 31 17 S 1011,4 0 0,0
12.11.2018 08:00:00 8,9 8,5 18 10 29 16 SSE 1011,6 0 0,0
12.11.2018 07:00:00 8,5 8,1 14 8 21 11 SSE 1011,8 0 0,0
12.11.2018 06:00:00 7,7 7,2 6 4 12 7 E 1012,2 0 0,0
12.11.2018 05:00:00 7,6 7,1 4 2 8 5 E 1012,5 0 0,0

tt = Température de l'air
td = dewpoint
ff = Vitesse du vent
fx = gusts
dd = Direction du vent
ppp = reduced air pressure
sd = Ensoleillement
rr = Quantités de précipitations

stations d'obs. à proximité